Time;durP1;ratioP1;P1;durP2;ratioP2;P2;SDS_P1;SDS_P2;PMS_P1;PMS_P2;Temp;Humidity;BMP_temperature;BMP_pressure;BME280_temperature;BME280_humidity;BME280_pressure;Samples;Min_cycle;Max_cycle;Signal;HPM_P1;HPM_P2
2023/02/01 00:00:12;;;;;;;;;;;7.90;99.90;;;;;;5054767;28;20354;-79
2023/02/01 00:06:13;;;;;;;;;;;7.80;99.90;;;;;;5055706;28;19913;-79
2023/02/01 00:08:42;;;;;;;;;;;7.70;99.90;;;;;;5055450;28;19920;-79
2023/02/01 00:14:53;;;;;;;;;;;;;;;;;;;;;
2023/02/01 00:17:19;;;;;;;;;;;7.70;99.90;;;;;;5072623;22;19924;-78
2023/02/01 00:19:44;;;;;;;;;;;7.70;99.90;;;;;;5057764;28;19963;-78
2023/02/01 00:22:10;;;;;;;;;;;7.70;99.90;;;;;;5057102;28;19959;-78
2023/02/01 00:24:35;;;;;;;;;;;7.80;99.90;;;;;;5057830;28;20008;-78
2023/02/01 00:27:01;;;;;;;;;;;7.70;99.90;;;;;;5052959;28;19948;-79
2023/02/01 00:29:26;;;;;;;;;;;7.70;99.90;;;;;;5057311;28;19913;-79
2023/02/01 00:31:52;;;;;;;;;;;7.70;99.90;;;;;;5057316;28;20288;-78
2023/02/01 00:34:18;;;;;;;;;;;7.60;99.90;;;;;;5057466;28;19963;-78
2023/02/01 00:36:43;;;;;;;;;;;7.60;99.90;;;;;;5036893;28;20274;-79
2023/02/01 00:39:09;;;;;;;;;;;7.50;99.90;;;;;;5056951;28;19913;-78
2023/02/01 00:41:35;;;;;;;;;;;7.50;99.90;;;;;;5056775;28;19909;-78
2023/02/01 00:44:01;;;;;;;;;;;7.40;99.90;;;;;;5057511;28;19913;-79
2023/02/01 00:46:27;;;;;;;;;;;7.40;99.90;;;;;;5055660;28;19935;-78
2023/02/01 00:48:52;;;;;;;;;;;7.40;99.90;;;;;;5056865;28;19913;-78
2023/02/01 00:51:22;;;;;;;;;;;7.30;99.90;;;;;;5039056;28;19917;-79
2023/02/01 00:53:48;;;;;;;;;;;7.30;99.90;;;;;;5057792;28;20316;-79
2023/02/01 00:56:14;;;;;;;;;;;7.30;99.90;;;;;;5057824;28;19915;-79
2023/02/01 00:58:39;;;;;;;;;;;7.30;99.90;;;;;;5057710;28;19909;-79
2023/02/01 01:01:06;;;;;;;;;;;7.30;99.90;;;;;;5057183;28;20349;-79
2023/02/01 01:03:33;;;;;;;;;;;7.40;99.90;;;;;;5057538;28;19909;-78
2023/02/01 01:05:59;;;;;;;;;;;7.30;99.90;;;;;;5057390;28;19917;-78
2023/02/01 01:08:25;;;;;;;;;;;7.40;99.90;;;;;;5039760;28;19909;-78
2023/02/01 01:10:51;;;;;;;;;;;7.30;99.90;;;;;;5057131;28;19909;-78
2023/02/01 01:13:16;;;;;;;;;;;7.30;99.90;;;;;;5056782;28;19951;-78
2023/02/01 01:15:41;;;;;;;;;;;7.20;99.90;;;;;;5057269;28;19913;-78
2023/02/01 01:18:07;;;;;;;;;;;7.10;99.90;;;;;;5056780;28;19916;-78
2023/02/01 01:20:37;;;;;;;;;;;7.10;99.90;;;;;;5038552;28;19948;-79
2023/02/01 01:23:03;;;;;;;;;;;7.10;99.90;;;;;;5055490;28;19917;-78
2023/02/01 01:25:28;;;;;;;;;;;7.00;99.90;;;;;;5039008;28;19967;-78
2023/02/01 01:27:53;;;;;;;;;;;7.00;99.90;;;;;;5055653;28;19909;-78
2023/02/01 01:30:19;;;;;;;;;;;6.90;99.90;;;;;;5057147;28;20004;-78
2023/02/01 01:32:45;;;;;;;;;;;6.90;99.90;;;;;;5056920;28;19908;-78
2023/02/01 01:35:10;;;;;;;;;;;6.90;99.90;;;;;;5039078;28;19938;-79
2023/02/01 01:37:36;;;;;;;;;;;6.90;99.90;;;;;;5038981;28;19955;-78
2023/02/01 01:40:05;;;;;;;;;;;6.90;99.90;;;;;;5056770;28;20370;-78
2023/02/01 01:42:36;;;;;;;;;;;6.80;99.90;;;;;;5057040;28;20358;-79
2023/02/01 01:45:06;;;;;;;;;;;6.70;99.90;;;;;;5055827;28;19920;-78
2023/02/01 01:47:35;;;;;;;;;;;6.70;99.90;;;;;;5055825;28;19908;-79
2023/02/01 01:50:01;;;;;;;;;;;6.50;99.90;;;;;;5056280;28;20294;-79
2023/02/01 01:52:28;;;;;;;;;;;6.60;99.90;;;;;;5055633;28;20497;-78
2023/02/01 01:54:53;;;;;;;;;;;6.60;99.90;;;;;;5037899;28;19909;-78
2023/02/01 01:57:31;;;;;;;;;;;6.60;99.90;;;;;;5038344;28;19909;-78
2023/02/01 02:00:04;;;;;;;;;;;6.60;99.90;;;;;;5056350;28;20309;-78
2023/02/01 02:02:30;;;;;;;;;;;6.70;99.90;;;;;;5055474;28;20012;-79
2023/02/01 02:04:55;;;;;;;;;;;6.70;99.90;;;;;;5055863;28;19913;-79
2023/02/01 02:07:22;;;;;;;;;;;6.80;99.90;;;;;;5037749;28;19931;-78
2023/02/01 02:09:48;;;;;;;;;;;6.80;99.90;;;;;;5037628;28;19962;-78
2023/02/01 02:12:13;;;;;;;;;;;6.90;99.90;;;;;;5055438;28;19908;-78
2023/02/01 02:14:39;;;;;;;;;;;6.90;99.90;;;;;;5055583;28;19952;-79
2023/02/01 02:17:23;;;;;;;;;;;6.90;99.90;;;;;;5055288;28;19985;-78
2023/02/01 02:20:09;;;;;;;;;;;6.90;99.90;;;;;;5055465;28;19909;-79
2023/02/01 02:22:41;;;;;;;;;;;7.00;99.90;;;;;;5036975;28;19909;-78
2023/02/01 02:25:12;;;;;;;;;;;6.90;99.90;;;;;;5037154;28;19917;-78
2023/02/01 02:28:03;;;;;;;;;;;6.90;99.90;;;;;;5055315;28;19962;-78
2023/02/01 02:30:48;;;;;;;;;;;7.00;99.90;;;;;;5037044;28;19928;-78
2023/02/01 02:33:22;;;;;;;;;;;6.90;99.90;;;;;;5054772;28;19909;-78
2023/02/01 02:36:06;;;;;;;;;;;6.90;99.90;;;;;;5036721;28;19955;-79
2023/02/01 02:38:44;;;;;;;;;;;7.00;99.90;;;;;;5054626;28;19913;-78
2023/02/01 02:41:09;;;;;;;;;;;7.00;99.90;;;;;;5054234;28;19909;-78
2023/02/01 02:49:23;;;;;;;;;;;7.00;99.90;;;;;;5054763;28;19919;-79
2023/02/01 02:54:51;;;;;;;;;;;7.00;99.90;;;;;;5054587;28;19991;-79
2023/02/01 03:05:34;;;;;;;;;;;7.00;99.90;;;;;;5054407;28;19920;-78
2023/02/01 03:08:00;;;;;;;;;;;7.00;99.90;;;;;;5054364;28;20349;-78
2023/02/01 03:10:48;;;;;;;;;;;7.10;99.90;;;;;;5054124;28;19909;-79
2023/02/01 03:13:37;;;;;;;;;;;7.00;99.90;;;;;;5045963;28;19913;-79
2023/02/01 03:16:03;;;;;;;;;;;7.00;99.90;;;;;;5046398;28;20370;-79
2023/02/01 03:18:47;;;;;;;;;;;7.00;99.90;;;;;;5036174;28;19927;-79
2023/02/01 03:21:15;;;;;;;;;;;7.10;99.90;;;;;;5053885;28;19909;-78
2023/02/01 03:23:42;;;;;;;;;;;7.10;99.90;;;;;;5054077;28;19917;-78
2023/02/01 03:26:10;;;;;;;;;;;7.10;99.90;;;;;;5054119;28;19948;-78
2023/02/01 03:28:37;;;;;;;;;;;7.10;99.90;;;;;;5053948;28;19908;-79
2023/02/01 03:31:02;;;;;;;;;;;7.10;99.90;;;;;;5053667;28;19952;-78
2023/02/01 03:33:29;;;;;;;;;;;7.10;99.90;;;;;;5053776;28;19908;-78
2023/02/01 03:36:09;;;;;;;;;;;7.10;99.90;;;;;;5054003;28;20337;-78
2023/02/01 03:38:40;;;;;;;;;;;7.00;99.90;;;;;;5054002;28;19912;-78
2023/02/01 03:41:11;;;;;;;;;;;7.00;99.90;;;;;;5053450;28;19908;-79
2023/02/01 03:43:48;;;;;;;;;;;6.90;99.90;;;;;;5036334;28;19909;-78
2023/02/01 03:46:17;;;;;;;;;;;6.90;99.90;;;;;;5057444;28;19916;-78
2023/02/01 03:48:43;;;;;;;;;;;6.80;99.90;;;;;;5040433;28;19941;-79
2023/02/01 03:51:09;;;;;;;;;;;6.70;99.90;;;;;;5057895;28;19924;-78
2023/02/01 03:53:36;;;;;;;;;;;6.70;99.90;;;;;;5058468;28;20378;-78
2023/02/01 03:56:01;;;;;;;;;;;6.70;99.90;;;;;;5057483;28;20062;-77
2023/02/01 03:58:27;;;;;;;;;;;6.80;99.90;;;;;;5057773;28;20380;-78
2023/02/01 04:00:57;;;;;;;;;;;6.80;99.90;;;;;;5057607;28;19909;-79
2023/02/01 04:03:24;;;;;;;;;;;6.90;99.90;;;;;;5057812;28;19931;-78
2023/02/01 04:05:50;;;;;;;;;;;6.90;99.90;;;;;;5057252;28;20370;-79
2023/02/01 04:08:16;;;;;;;;;;;6.90;99.90;;;;;;5056808;28;19908;-78
2023/02/01 04:10:42;;;;;;;;;;;6.90;99.90;;;;;;5057291;28;19909;-79
2023/02/01 04:13:07;;;;;;;;;;;7.00;99.90;;;;;;5057298;28;19916;-78
2023/02/01 04:15:34;;;;;;;;;;;7.00;99.90;;;;;;5057640;28;19909;-79
2023/02/01 04:17:59;;;;;;;;;;;7.00;99.90;;;;;;5057174;28;19917;-78
2023/02/01 04:20:25;;;;;;;;;;;7.00;99.90;;;;;;5057600;28;20251;-79
2023/02/01 04:22:50;;;;;;;;;;;7.00;99.90;;;;;;5057405;28;19909;-78
2023/02/01 04:25:17;;;;;;;;;;;7.00;99.90;;;;;;5039408;28;19913;-79
2023/02/01 04:27:42;;;;;;;;;;;6.90;99.90;;;;;;5039448;28;19909;-78
2023/02/01 04:30:09;;;;;;;;;;;7.00;99.90;;;;;;5057445;28;19920;-78
2023/02/01 04:32:38;;;;;;;;;;;6.90;99.90;;;;;;5056725;28;19943;-78
2023/02/01 04:35:04;;;;;;;;;;;6.90;99.90;;;;;;5056948;28;19908;-78
2023/02/01 04:37:29;;;;;;;;;;;6.90;99.90;;;;;;5056914;28;19920;-79
2023/02/01 04:39:55;;;;;;;;;;;6.80;99.90;;;;;;5057245;28;19913;-78
2023/02/01 04:42:20;;;;;;;;;;;6.70;99.90;;;;;;5056782;28;19935;-79
2023/02/01 04:44:46;;;;;;;;;;;6.60;99.90;;;;;;5038740;28;19909;-78
2023/02/01 04:47:11;;;;;;;;;;;6.50;99.90;;;;;;5056240;28;19948;-77
2023/02/01 04:49:37;;;;;;;;;;;6.50;99.90;;;;;;5055793;28;19909;-78
2023/02/01 04:52:02;;;;;;;;;;;6.40;99.90;;;;;;5037647;28;19909;-78
2023/02/01 04:54:28;;;;;;;;;;;6.40;99.90;;;;;;5055978;28;20313;-78
2023/02/01 04:56:53;;;;;;;;;;;6.40;99.90;;;;;;5055870;28;19909;-77
2023/02/01 04:59:19;;;;;;;;;;;6.40;99.90;;;;;;5055526;28;19908;-78
2023/02/01 05:01:44;;;;;;;;;;;6.40;99.90;;;;;;5055441;28;19916;-77
2023/02/01 05:04:10;;;;;;;;;;;6.40;99.90;;;;;;5055346;28;20065;-77
2023/02/01 05:06:35;;;;;;;;;;;6.40;99.90;;;;;;5055451;28;20289;-77
2023/02/01 05:09:00;;;;;;;;;;;6.30;99.90;;;;;;5037358;28;19909;-77
2023/02/01 05:14:10;;;;;;;;;;;6.30;99.90;;;;;;5055200;28;19924;-77
2023/02/01 05:16:35;;;;;;;;;;;6.30;99.90;;;;;;5055139;28;20354;-77
2023/02/01 05:19:01;;;;;;;;;;;6.30;99.90;;;;;;5055212;28;20005;-77
2023/02/01 05:21:26;;;;;;;;;;;6.30;99.90;;;;;;5054756;28;19916;-77
2023/02/01 05:24:10;;;;;;;;;;;6.20;99.90;;;;;;5037202;28;19909;-77
2023/02/01 05:26:39;;;;;;;;;;;6.20;99.90;;;;;;5054894;28;19927;-77
2023/02/01 05:29:05;;;;;;;;;;;6.20;99.90;;;;;;5055406;28;20286;-77
2023/02/01 05:31:30;;;;;;;;;;;6.20;99.90;;;;;;5054897;28;19916;-77
2023/02/01 05:33:56;;;;;;;;;;;6.10;99.90;;;;;;5055074;28;20232;-77
2023/02/01 05:36:22;;;;;;;;;;;6.10;99.90;;;;;;5054924;28;20004;-77
2023/02/01 05:38:47;;;;;;;;;;;6.00;99.90;;;;;;5054789;28;19909;-78
2023/02/01 05:41:12;;;;;;;;;;;6.00;99.90;;;;;;5054547;28;20489;-77
2023/02/01 05:43:38;;;;;;;;;;;6.00;99.90;;;;;;5036932;28;20301;-77
2023/02/01 05:46:03;;;;;;;;;;;6.00;99.90;;;;;;5054487;28;19913;-77
2023/02/01 05:48:29;;;;;;;;;;;5.90;99.90;;;;;;5054908;28;19920;-77
2023/02/01 05:50:54;;;;;;;;;;;5.90;99.90;;;;;;5036508;28;19909;-77
2023/02/01 05:53:20;;;;;;;;;;;5.90;99.90;;;;;;5054375;28;19909;-77
2023/02/01 05:55:45;;;;;;;;;;;5.90;99.90;;;;;;5036920;28;19909;-77
2023/02/01 05:58:12;;;;;;;;;;;5.90;99.90;;;;;;5054251;28;20011;-77
2023/02/01 06:00:37;;;;;;;;;;;5.90;99.90;;;;;;5054610;28;19909;-79
2023/02/01 06:03:03;;;;;;;;;;;5.90;99.90;;;;;;5054492;28;19909;-79
2023/02/01 06:05:28;;;;;;;;;;;5.90;99.90;;;;;;5036689;28;20427;-79
2023/02/01 06:07:54;;;;;;;;;;;5.90;99.90;;;;;;5054177;28;19913;-77
2023/02/01 06:10:19;;;;;;;;;;;5.90;99.90;;;;;;5054311;28;19919;-77
2023/02/01 06:12:45;;;;;;;;;;;5.90;99.90;;;;;;5054105;28;19909;-77
2023/02/01 06:15:11;;;;;;;;;;;5.90;99.90;;;;;;5054256;28;19991;-77
2023/02/01 06:17:37;;;;;;;;;;;5.90;99.90;;;;;;5068754;22;19925;-83
2023/02/01 06:20:03;;;;;;;;;;;5.90;99.90;;;;;;5039973;28;19913;-83
2023/02/01 06:22:29;;;;;;;;;;;5.80;99.90;;;;;;5036952;28;20293;-83
2023/02/01 06:24:54;;;;;;;;;;;5.80;99.90;;;;;;5029723;28;19921;-83
2023/02/01 06:27:20;;;;;;;;;;;5.80;99.90;;;;;;5023698;28;19909;-84
2023/02/01 06:29:45;;;;;;;;;;;5.70;99.90;;;;;;5024200;28;19955;-84
2023/02/01 06:32:11;;;;;;;;;;;5.80;99.90;;;;;;5023546;28;19963;-83
2023/02/01 06:34:37;;;;;;;;;;;5.80;99.90;;;;;;5023530;28;20429;-84
2023/02/01 06:37:02;;;;;;;;;;;5.70;99.90;;;;;;5042092;28;19909;-84
2023/02/01 06:39:28;;;;;;;;;;;5.80;99.90;;;;;;5023491;28;19917;-83
2023/02/01 06:41:53;;;;;;;;;;;5.80;99.90;;;;;;5041633;28;20290;-85
2023/02/01 06:44:19;;;;;;;;;;;5.80;99.90;;;;;;5022842;28;19909;-84
2023/02/01 06:46:44;;;;;;;;;;;5.90;99.90;;;;;;5022269;28;20366;-83
2023/02/01 06:49:10;;;;;;;;;;;6.00;99.90;;;;;;5022145;28;19960;-83
2023/02/01 06:51:35;;;;;;;;;;;6.00;99.90;;;;;;5041180;28;20282;-83
2023/02/01 06:54:01;;;;;;;;;;;6.00;99.90;;;;;;5022062;28;19913;-83
2023/02/01 06:56:26;;;;;;;;;;;6.00;99.90;;;;;;5040680;28;19913;-84
2023/02/01 06:58:52;;;;;;;;;;;6.10;99.90;;;;;;5039697;28;20011;-84
2023/02/01 07:01:17;;;;;;;;;;;6.10;99.90;;;;;;5039915;28;19909;-83
2023/02/01 07:03:46;;;;;;;;;;;6.10;99.90;;;;;;5021275;28;19917;-83
2023/02/01 07:06:12;;;;;;;;;;;6.10;99.90;;;;;;5039818;28;19923;-83
2023/02/01 07:08:37;;;;;;;;;;;6.10;99.90;;;;;;5040013;28;19913;-83
2023/02/01 07:11:04;;;;;;;;;;;6.10;99.90;;;;;;5021415;28;19916;-83
2023/02/01 07:13:29;;;;;;;;;;;6.20;99.90;;;;;;5039344;28;20477;-84
2023/02/01 07:15:57;;;;;;;;;;;6.30;99.90;;;;;;5039201;28;19916;-83
2023/02/01 07:18:22;;;;;;;;;;;6.30;99.90;;;;;;5019063;28;19964;-84
2023/02/01 07:20:51;;;;;;;;;;;6.30;99.90;;;;;;5019640;28;19936;-83
2023/02/01 07:23:17;;;;;;;;;;;6.30;99.90;;;;;;5038450;28;20362;-83
2023/02/01 07:25:42;;;;;;;;;;;6.40;99.90;;;;;;5020012;28;19913;-82
2023/02/01 07:28:08;;;;;;;;;;;6.50;99.90;;;;;;5019708;28;20008;-83
2023/02/01 07:30:33;;;;;;;;;;;6.50;99.90;;;;;;5020707;28;19979;-83
2023/02/01 07:33:00;;;;;;;;;;;6.40;99.90;;;;;;5037477;28;20028;-83
2023/02/01 07:35:27;;;;;;;;;;;6.40;99.90;;;;;;5020120;28;19909;-83
2023/02/01 07:37:52;;;;;;;;;;;6.40;99.90;;;;;;5017971;28;19909;-83
2023/02/01 07:40:18;;;;;;;;;;;6.40;99.90;;;;;;5018290;28;19916;-84
2023/02/01 07:42:43;;;;;;;;;;;6.40;99.90;;;;;;5035374;28;19998;-84
2023/02/01 07:45:09;;;;;;;;;;;6.40;99.90;;;;;;5036394;28;20409;-83
2023/02/01 07:47:34;;;;;;;;;;;6.40;99.90;;;;;;5036601;28;19974;-83
2023/02/01 07:50:00;;;;;;;;;;;6.40;99.90;;;;;;5021817;28;19988;-83
2023/02/01 07:52:27;;;;;;;;;;;6.40;99.90;;;;;;5017573;28;20371;-83
2023/02/01 07:54:53;;;;;;;;;;;6.50;99.90;;;;;;5036853;28;20442;-83
2023/02/01 07:57:18;;;;;;;;;;;6.50;99.90;;;;;;5037010;28;19913;-83
2023/02/01 08:02:28;;;;;;;;;;;6.40;99.90;;;;;;5037051;28;20015;-84
2023/02/01 08:04:53;;;;;;;;;;;6.50;99.90;;;;;;5017849;28;19983;-83
2023/02/01 08:07:19;;;;;;;;;;;6.50;99.90;;;;;;5035631;28;19909;-83
2023/02/01 08:09:45;;;;;;;;;;;6.60;99.90;;;;;;5035525;28;20044;-82
2023/02/01 08:12:10;;;;;;;;;;;6.50;99.90;;;;;;5036089;28;19917;-84
2023/02/01 08:14:35;;;;;;;;;;;6.50;99.90;;;;;;5035770;28;19909;-83
2023/02/01 08:17:01;;;;;;;;;;;6.50;99.90;;;;;;5035987;28;20008;-83
2023/02/01 08:19:26;;;;;;;;;;;6.50;99.90;;;;;;5017561;28;19916;-83
2023/02/01 08:21:52;;;;;;;;;;;6.60;99.90;;;;;;5035750;28;20265;-83
2023/02/01 08:24:17;;;;;;;;;;;6.60;99.90;;;;;;5017770;28;19909;-84
2023/02/01 08:26:43;;;;;;;;;;;6.70;99.90;;;;;;5017685;28;19959;-82
2023/02/01 08:29:10;;;;;;;;;;;6.60;99.90;;;;;;5017272;28;19910;-83
2023/02/01 08:31:36;;;;;;;;;;;6.60;99.90;;;;;;5037234;28;19909;-83
2023/02/01 08:34:03;;;;;;;;;;;6.60;99.90;;;;;;5020890;28;19913;-83
2023/02/01 08:36:29;;;;;;;;;;;6.70;99.90;;;;;;5020066;28;19909;-82
2023/02/01 08:38:55;;;;;;;;;;;6.70;99.90;;;;;;5019071;28;19946;-83
2023/02/01 08:41:22;;;;;;;;;;;6.70;99.90;;;;;;5037123;28;20263;-82
2023/02/01 08:43:47;;;;;;;;;;;6.70;99.90;;;;;;5036610;28;19913;-82
2023/02/01 08:46:13;;;;;;;;;;;6.80;99.90;;;;;;5018625;28;20286;-82
2023/02/01 08:48:39;;;;;;;;;;;6.80;99.90;;;;;;5018778;28;20346;-82
2023/02/01 08:51:06;;;;;;;;;;;6.80;99.90;;;;;;5018670;28;19915;-82
2023/02/01 08:53:32;;;;;;;;;;;6.80;99.90;;;;;;5018595;28;19936;-82
2023/02/01 08:55:57;;;;;;;;;;;6.90;99.90;;;;;;5036436;28;19909;-83
2023/02/01 08:58:23;;;;;;;;;;;6.90;99.90;;;;;;5018732;28;20366;-82
2023/02/01 09:00:49;;;;;;;;;;;6.90;99.90;;;;;;5018264;28;20047;-83
2023/02/01 09:03:15;;;;;;;;;;;6.90;99.90;;;;;;5018178;28;20394;-82
2023/02/01 09:05:41;;;;;;;;;;;7.00;99.90;;;;;;5018396;28;20018;-82
2023/02/01 09:08:06;;;;;;;;;;;7.00;99.90;;;;;;5018345;28;20359;-83
2023/02/01 09:10:32;;;;;;;;;;;7.00;99.90;;;;;;5018192;28;19909;-82
2023/02/01 09:12:58;;;;;;;;;;;7.10;99.90;;;;;;5017842;28;20366;-82
2023/02/01 09:15:23;;;;;;;;;;;7.20;99.90;;;;;;5035649;28;19939;-82
2023/02/01 09:17:49;;;;;;;;;;;7.40;99.90;;;;;;5017232;28;19921;-83
2023/02/01 09:20:15;;;;;;;;;;;7.40;99.90;;;;;;5016726;28;19913;-83
2023/02/01 09:22:40;;;;;;;;;;;7.40;99.90;;;;;;5014725;28;20385;-84
2023/02/01 09:25:06;;;;;;;;;;;7.20;99.90;;;;;;5017896;28;20607;-83
2023/02/01 09:27:31;;;;;;;;;;;7.10;99.90;;;;;;5017241;28;20371;-82
2023/02/01 09:29:57;;;;;;;;;;;7.10;99.90;;;;;;5004100;28;19910;-82
2023/02/01 09:32:23;;;;;;;;;;;7.10;99.90;;;;;;5015339;28;19909;-82
2023/02/01 09:34:49;;;;;;;;;;;7.10;99.90;;;;;;4997898;28;19916;-83
2023/02/01 09:37:14;;;;;;;;;;;7.20;99.90;;;;;;5008109;28;19917;-83
2023/02/01 09:39:41;;;;;;;;;;;7.20;99.90;;;;;;5017269;28;20252;-84
2023/02/01 09:42:07;;;;;;;;;;;7.30;99.90;;;;;;5034210;28;19909;-83
2023/02/01 09:44:48;;;;;;;;;;;7.40;99.90;;;;;;5017013;28;19909;-83
2023/02/01 09:47:14;;;;;;;;;;;7.50;99.90;;;;;;5016879;28;19928;-84
2023/02/01 09:49:47;;;;;;;;;;;7.60;99.90;;;;;;5017073;28;20251;-85
2023/02/01 09:52:13;;;;;;;;;;;7.70;99.90;;;;;;5034853;28;19909;-84
2023/02/01 09:54:58;;;;;;;;;;;7.60;99.90;;;;;;5015685;28;19955;-82
2023/02/01 09:57:25;;;;;;;;;;;7.70;99.90;;;;;;5014397;28;19917;-86
2023/02/01 09:59:54;;;;;;;;;;;7.70;99.90;;;;;;5014875;28;19964;-83
2023/02/01 10:02:22;;;;;;;;;;;7.70;99.90;;;;;;5034530;28;19925;-84
2023/02/01 10:04:48;;;;;;;;;;;7.60;99.90;;;;;;5017147;28;19936;-85
2023/02/01 10:07:29;;;;;;;;;;;7.70;99.90;;;;;;5017042;28;19917;-83
2023/02/01 10:10:05;;;;;;;;;;;7.70;99.90;;;;;;5035416;28;20382;-85
2023/02/01 10:12:30;;;;;;;;;;;7.80;99.90;;;;;;5017247;28;19909;-82
2023/02/01 10:15:13;;;;;;;;;;;7.70;99.90;;;;;;5015181;28;20355;-85
2023/02/01 10:17:42;;;;;;;;;;;7.80;99.90;;;;;;5027871;28;19917;-83
2023/02/01 10:20:10;;;;;;;;;;;8.00;99.90;;;;;;5016713;28;19999;-84
2023/02/01 10:22:41;;;;;;;;;;;8.20;99.90;;;;;;5018075;28;19910;-86
2023/02/01 10:25:25;;;;;;;;;;;8.40;99.90;;;;;;5021490;28;19909;-85
2023/02/01 10:27:51;;;;;;;;;;;8.40;99.90;;;;;;5018167;28;19917;-84
2023/02/01 10:30:19;;;;;;;;;;;8.40;99.90;;;;;;5016540;28;20366;-83
2023/02/01 10:32:45;;;;;;;;;;;8.30;99.90;;;;;;5018788;28;19944;-85
2023/02/01 10:35:14;;;;;;;;;;;8.20;99.90;;;;;;5017140;28;19913;-86
2023/02/01 10:37:41;;;;;;;;;;;8.30;99.90;;;;;;5018977;28;19913;-85
2023/02/01 10:40:09;;;;;;;;;;;8.50;99.90;;;;;;5019077;28;19913;-86
2023/02/01 10:42:35;;;;;;;;;;;8.50;99.90;;;;;;5016016;28;19909;-84
2023/02/01 10:45:02;;;;;;;;;;;8.50;99.90;;;;;;5033771;28;20344;-85
2023/02/01 10:47:27;;;;;;;;;;;8.60;99.90;;;;;;5017022;28;20282;-84
2023/02/01 10:50:15;;;;;;;;;;;8.80;99.90;;;;;;5018336;28;19909;-84
2023/02/01 10:53:04;;;;;;;;;;;9.10;99.90;;;;;;5002680;28;19913;-84
2023/02/01 10:55:33;;;;;;;;;;;9.50;99.90;;;;;;5017036;28;19952;-84
2023/02/01 10:58:03;;;;;;;;;;;9.20;99.90;;;;;;5017842;28;19909;-84
2023/02/01 11:00:37;;;;;;;;;;;9.30;99.90;;;;;;5018163;28;19917;-83
2023/02/01 11:03:19;;;;;;;;;;;9.40;99.90;;;;;;5023585;28;20010;-83
2023/02/01 11:05:48;;;;;;;;;;;9.30;99.90;;;;;;5021394;28;19913;-86
2023/02/01 11:08:18;;;;;;;;;;;9.30;99.90;;;;;;5017207;28;19909;-86
2023/02/01 11:10:44;;;;;;;;;;;9.30;99.90;;;;;;5029624;28;20039;-86
2023/02/01 11:13:17;;;;;;;;;;;9.20;99.90;;;;;;5021344;28;20387;-86
2023/02/01 11:15:44;;;;;;;;;;;9.30;99.90;;;;;;5023907;28;20298;-85
2023/02/01 11:18:24;;;;;;;;;;;9.20;99.90;;;;;;5022099;28;19921;-85
2023/02/01 11:20:51;;;;;;;;;;;9.30;99.90;;;;;;5022094;28;20316;-84
2023/02/01 11:23:27;;;;;;;;;;;9.10;99.90;;;;;;5023079;28;19909;-85
2023/02/01 11:25:56;;;;;;;;;;;8.90;99.90;;;;;;5017122;28;19978;-85
2023/02/01 11:28:25;;;;;;;;;;;8.80;99.90;;;;;;5008361;28;19948;-85
2023/02/01 11:30:54;;;;;;;;;;;9.00;99.90;;;;;;5015330;28;19913;-84
2023/02/01 11:33:27;;;;;;;;;;;8.90;99.90;;;;;;5016642;28;20385;-85
2023/02/01 11:35:53;;;;;;;;;;;9.20;99.90;;;;;;5011075;28;19972;-85
2023/02/01 11:38:26;;;;;;;;;;;9.50;99.90;;;;;;5012868;28;20359;-85
2023/02/01 11:40:51;;;;;;;;;;;9.50;99.90;;;;;;5015272;28;19916;-84
2023/02/01 11:43:25;;;;;;;;;;;9.60;99.90;;;;;;5020169;28;19909;-86
2023/02/01 11:45:58;;;;;;;;;;;9.50;99.90;;;;;;5024132;28;19921;-84
2023/02/01 11:48:24;;;;;;;;;;;9.50;99.90;;;;;;5014965;28;19916;-82
2023/02/01 11:51:09;;;;;;;;;;;10.30;99.90;;;;;;5015319;28;19913;-83
2023/02/01 11:53:46;;;;;;;;;;;10.50;99.90;;;;;;5032985;28;20289;-83
2023/02/01 11:56:12;;;;;;;;;;;10.10;99.90;;;;;;5015113;28;19940;-83
2023/02/01 11:58:45;;;;;;;;;;;9.60;99.90;;;;;;5032476;28;19967;-84
2023/02/01 12:01:32;;;;;;;;;;;9.40;99.90;;;;;;5015330;28;19975;-85
2023/02/01 12:04:07;;;;;;;;;;;9.20;99.90;;;;;;5015570;28;19941;-84
2023/02/01 12:06:51;;;;;;;;;;;9.00;99.90;;;;;;5017489;28;19913;-83
2023/02/01 12:09:20;;;;;;;;;;;9.00;99.90;;;;;;5018981;28;20046;-83
2023/02/01 12:12:03;;;;;;;;;;;8.90;99.90;;;;;;5019162;28;20378;-82
2023/02/01 12:14:34;;;;;;;;;;;8.90;99.90;;;;;;5019150;28;19909;-83
2023/02/01 12:17:00;;;;;;;;;;;8.80;99.90;;;;;;5036063;28;20003;-83
2023/02/01 12:56:55;;;;;;;;;;;8.90;99.90;;;;;;4977307;28;20017;-80
2023/02/01 12:59:52;;;;;;;;;;;;;;;;;;;;;
2023/02/01 13:02:35;;;;;;;;;;;8.70;99.90;;;;;;4977685;28;19920;-79
2023/02/01 13:05:47;;;;;;;;;;;;;;;;;;;;;
2023/02/01 13:14:25;;;;;;;;;;;8.80;99.90;;;;;;5057013;28;19939;-78
2023/02/01 13:16:57;;;;;;;;;;;8.90;99.90;;;;;;5063531;28;20343;-77
2023/02/01 13:19:23;;;;;;;;;;;8.80;99.90;;;;;;5077084;28;19908;-78
2023/02/01 13:21:51;;;;;;;;;;;8.80;99.90;;;;;;5076996;28;19908;-77
2023/02/01 13:24:35;;;;;;;;;;;8.70;99.90;;;;;;5059394;28;19912;-77
2023/02/01 13:27:01;;;;;;;;;;;8.70;99.90;;;;;;5077736;28;19913;-77
2023/02/01 13:29:27;;;;;;;;;;;8.70;99.90;;;;;;5077528;28;19935;-77
2023/02/01 13:32:17;;;;;;;;;;;8.70;99.90;;;;;;5077374;28;19999;-77
2023/02/01 13:34:42;;;;;;;;;;;8.60;99.90;;;;;;5077916;28;19915;-77
2023/02/01 13:37:16;;;;;;;;;;;8.60;99.90;;;;;;5077831;28;19908;-78
2023/02/01 13:39:48;;;;;;;;;;;8.60;99.90;;;;;;5059404;28;19909;-77
2023/02/01 13:42:28;;;;;;;;;;;8.60;99.90;;;;;;5058896;28;19908;-78
2023/02/01 13:44:59;;;;;;;;;;;8.60;99.90;;;;;;5075703;28;19908;-77
2023/02/01 13:47:28;;;;;;;;;;;8.60;99.90;;;;;;5077892;28;19919;-77
2023/02/01 13:49:55;;;;;;;;;;;8.60;99.90;;;;;;5076295;28;19924;-77
2023/02/01 13:52:25;;;;;;;;;;;8.70;99.90;;;;;;5058771;28;19912;-77
2023/02/01 13:55:00;;;;;;;;;;;8.60;99.90;;;;;;5058800;28;19909;-78
2023/02/01 13:57:34;;;;;;;;;;;8.70;99.90;;;;;;5059212;28;19909;-77
2023/02/01 14:00:19;;;;;;;;;;;8.80;99.90;;;;;;5075748;28;19962;-78
2023/02/01 14:02:46;;;;;;;;;;;8.80;99.90;;;;;;5077026;28;20495;-77
2023/02/01 14:05:21;;;;;;;;;;;8.80;99.90;;;;;;5058993;28;19931;-77
2023/02/01 14:08:09;;;;;;;;;;;8.80;99.90;;;;;;5077759;28;19913;-77
2023/02/01 14:10:53;;;;;;;;;;;8.80;99.90;;;;;;5082343;28;19916;-78
2023/02/01 14:13:28;;;;;;;;;;;8.80;99.90;;;;;;5078842;28;19912;-78
2023/02/01 14:16:02;;;;;;;;;;;8.80;99.90;;;;;;5078177;28;19908;-79
2023/02/01 14:18:37;;;;;;;;;;;8.80;99.90;;;;;;5078109;28;19962;-78
2023/02/01 14:21:18;;;;;;;;;;;8.80;99.90;;;;;;5059555;28;19912;-79
2023/02/01 14:23:45;;;;;;;;;;;9.00;99.90;;;;;;5058713;28;19948;-78
2023/02/01 14:26:13;;;;;;;;;;;9.00;99.90;;;;;;5076504;28;19912;-79
2023/02/01 14:28:41;;;;;;;;;;;9.00;99.90;;;;;;5077632;28;20293;-77
2023/02/01 14:31:18;;;;;;;;;;;9.00;99.90;;;;;;5061505;28;20420;-78
2023/02/01 14:33:45;;;;;;;;;;;9.00;99.90;;;;;;5080200;28;19975;-78
2023/02/01 14:36:12;;;;;;;;;;;9.00;99.90;;;;;;5062062;28;19909;-78
2023/02/01 14:38:38;;;;;;;;;;;9.00;99.90;;;;;;5059518;28;19909;-78
2023/02/01 14:41:18;;;;;;;;;;;8.90;99.90;;;;;;5078954;28;19930;-77
2023/02/01 14:44:02;;;;;;;;;;;8.90;99.90;;;;;;5057828;28;20007;-77
2023/02/01 14:47:00;;;;;;;;;;;8.90;99.90;;;;;;5075542;28;19912;-78
2023/02/01 14:49:29;;;;;;;;;;;8.90;99.90;;;;;;5013844;28;20300;-78
2023/02/01 14:51:56;;;;;;;;;;;8.80;99.90;;;;;;5057015;28;19913;-78
2023/02/01 14:54:24;;;;;;;;;;;8.80;99.90;;;;;;5057030;28;20003;-78
2023/02/01 14:56:51;;;;;;;;;;;8.90;99.90;;;;;;5075227;28;19954;-78
2023/02/01 14:59:20;;;;;;;;;;;8.90;99.90;;;;;;5074987;28;20313;-78
2023/02/01 15:01:49;;;;;;;;;;;9.00;99.90;;;;;;5074898;28;19915;-78
2023/02/01 15:04:18;;;;;;;;;;;8.90;99.90;;;;;;5057516;28;19961;-78
2023/02/01 15:06:49;;;;;;;;;;;8.80;99.90;;;;;;5075091;28;19935;-78
2023/02/01 15:09:19;;;;;;;;;;;8.80;99.90;;;;;;5074113;28;20293;-78
2023/02/01 15:12:03;;;;;;;;;;;8.80;99.90;;;;;;5073268;28;19909;-78
2023/02/01 15:14:30;;;;;;;;;;;8.90;99.90;;;;;;5074849;28;19915;-78
2023/02/01 15:16:56;;;;;;;;;;;8.90;99.90;;;;;;5057015;28;19909;-78
2023/02/01 15:19:23;;;;;;;;;;;8.80;99.90;;;;;;5056398;28;19958;-77
2023/02/01 15:21:50;;;;;;;;;;;8.80;99.90;;;;;;5056623;28;20328;-78
2023/02/01 15:24:18;;;;;;;;;;;8.80;99.90;;;;;;5074827;28;20007;-78
2023/02/01 15:26:43;;;;;;;;;;;8.80;99.90;;;;;;5056629;28;19918;-78
2023/02/01 15:29:10;;;;;;;;;;;8.80;99.90;;;;;;5075129;28;19908;-78
2023/02/01 15:31:40;;;;;;;;;;;8.80;99.90;;;;;;5074254;28;19942;-77
2023/02/01 15:34:06;;;;;;;;;;;8.80;99.90;;;;;;5074570;28;19908;-78
2023/02/01 15:36:33;;;;;;;;;;;8.80;99.90;;;;;;5074400;28;20043;-78
2023/02/01 15:39:12;;;;;;;;;;;8.90;99.90;;;;;;5073322;28;19909;-78
2023/02/01 15:41:38;;;;;;;;;;;8.90;99.90;;;;;;5055544;28;19942;-78
2023/02/01 15:44:08;;;;;;;;;;;8.90;99.90;;;;;;5073477;28;19915;-78
2023/02/01 15:46:33;;;;;;;;;;;8.90;99.90;;;;;;5074941;28;19917;-77
2023/02/01 15:49:02;;;;;;;;;;;8.90;99.90;;;;;;5074436;28;19990;-78
2023/02/01 15:51:29;;;;;;;;;;;8.90;99.90;;;;;;5055546;28;19916;-78
2023/02/01 15:54:00;;;;;;;;;;;8.90;99.90;;;;;;5074255;28;20042;-78
2023/02/01 15:56:33;;;;;;;;;;;8.90;99.90;;;;;;5074423;28;19912;-78